sensor_id;sensor_type;location;lat;lon;timestamp;P1;durP1;ratioP1;P2;durP2;ratioP2
51971;SDS011;37991;49.662;10.060;2022-12-07T00:00:41;6.68;;;3.72;;
51971;SDS011;37991;49.662;10.060;2022-12-07T00:03:06;8.68;;;4.30;;
51971;SDS011;37991;49.662;10.060;2022-12-07T00:05:31;9.80;;;4.30;;
51971;SDS011;37991;49.662;10.060;2022-12-07T00:07:57;7.70;;;4.25;;
51971;SDS011;37991;49.662;10.060;2022-12-07T00:10:22;7.00;;;4.15;;
51971;SDS011;37991;49.662;10.060;2022-12-07T00:12:48;9.10;;;4.30;;
51971;SDS011;37991;49.662;10.060;2022-12-07T00:15:13;6.32;;;3.83;;
51971;SDS011;37991;49.662;10.060;2022-12-07T00:17:38;7.05;;;4.18;;
51971;SDS011;37991;49.662;10.060;2022-12-07T00:20:04;10.40;;;4.55;;
51971;SDS011;37991;49.662;10.060;2022-12-07T00:22:30;6.18;;;3.95;;
51971;SDS011;37991;49.662;10.060;2022-12-07T00:24:55;9.02;;;4.45;;
51971;SDS011;37991;49.662;10.060;2022-12-07T00:27:21;9.90;;;4.53;;
51971;SDS011;37991;49.662;10.060;2022-12-07T00:29:46;7.43;;;3.90;;
51971;SDS011;37991;49.662;10.060;2022-12-07T00:32:11;9.02;;;4.50;;
51971;SDS011;37991;49.662;10.060;2022-12-07T00:34:37;6.85;;;3.88;;
51971;SDS011;37991;49.662;10.060;2022-12-07T00:37:02;8.35;;;4.18;;
51971;SDS011;37991;49.662;10.060;2022-12-07T00:39:27;9.32;;;4.03;;
51971;SDS011;37991;49.662;10.060;2022-12-07T00:41:53;6.65;;;3.85;;
51971;SDS011;37991;49.662;10.060;2022-12-07T00:44:18;8.15;;;4.10;;
51971;SDS011;37991;49.662;10.060;2022-12-07T00:46:43;7.55;;;4.10;;
51971;SDS011;37991;49.662;10.060;2022-12-07T00:49:10;8.27;;;4.10;;
51971;SDS011;37991;49.662;10.060;2022-12-07T00:51:35;7.43;;;4.00;;
51971;SDS011;37991;49.662;10.060;2022-12-07T00:54:01;14.70;;;6.32;;
51971;SDS011;37991;49.662;10.060;2022-12-07T00:56:27;11.88;;;5.47;;
51971;SDS011;37991;49.662;10.060;2022-12-07T00:58:57;8.70;;;4.15;;
51971;SDS011;37991;49.662;10.060;2022-12-07T01:01:26;8.55;;;4.20;;
51971;SDS011;37991;49.662;10.060;2022-12-07T01:03:53;15.93;;;6.57;;
51971;SDS011;37991;49.662;10.060;2022-12-07T01:06:19;10.13;;;4.55;;
51971;SDS011;37991;49.662;10.060;2022-12-07T01:08:46;8.80;;;4.10;;
51971;SDS011;37991;49.662;10.060;2022-12-07T01:11:16;7.03;;;4.00;;
51971;SDS011;37991;49.662;10.060;2022-12-07T01:13:44;5.53;;;3.78;;
51971;SDS011;37991;49.662;10.060;2022-12-07T01:16:11;7.90;;;4.43;;
51971;SDS011;37991;49.662;10.060;2022-12-07T01:18:38;7.15;;;4.30;;
51971;SDS011;37991;49.662;10.060;2022-12-07T01:23:34;11.07;;;4.72;;
51971;SDS011;37991;49.662;10.060;2022-12-07T01:26:02;9.32;;;4.63;;
51971;SDS011;37991;49.662;10.060;2022-12-07T01:28:32;11.55;;;5.45;;
51971;SDS011;37991;49.662;10.060;2022-12-07T01:31:02;13.68;;;5.35;;
51971;SDS011;37991;49.662;10.060;2022-12-07T01:33:30;12.23;;;5.32;;
51971;SDS011;37991;49.662;10.060;2022-12-07T01:36:05;14.20;;;6.03;;
51971;SDS011;37991;49.662;10.060;2022-12-07T01:38:32;14.32;;;6.63;;
51971;SDS011;37991;49.662;10.060;2022-12-07T01:40:58;14.02;;;6.05;;
51971;SDS011;37991;49.662;10.060;2022-12-07T01:43:25;12.90;;;6.45;;
51971;SDS011;37991;49.662;10.060;2022-12-07T01:45:53;12.43;;;5.47;;
51971;SDS011;37991;49.662;10.060;2022-12-07T01:48:20;12.93;;;6.45;;
51971;SDS011;37991;49.662;10.060;2022-12-07T01:50:50;13.00;;;6.07;;
51971;SDS011;37991;49.662;10.060;2022-12-07T01:53:17;14.68;;;6.28;;
51971;SDS011;37991;49.662;10.060;2022-12-07T01:55:44;12.82;;;6.45;;
51971;SDS011;37991;49.662;10.060;2022-12-07T01:58:12;15.48;;;6.50;;
51971;SDS011;37991;49.662;10.060;2022-12-07T02:00:39;15.05;;;7.72;;
51971;SDS011;37991;49.662;10.060;2022-12-07T02:03:07;13.80;;;6.65;;
51971;SDS011;37991;49.662;10.060;2022-12-07T02:05:37;16.33;;;6.70;;
51971;SDS011;37991;49.662;10.060;2022-12-07T02:08:03;12.13;;;5.75;;
51971;SDS011;37991;49.662;10.060;2022-12-07T02:10:31;21.00;;;7.47;;
51971;SDS011;37991;49.662;10.060;2022-12-07T02:20:34;17.45;;;7.03;;
51971;SDS011;37991;49.662;10.060;2022-12-07T02:26:34;18.17;;;7.53;;
51971;SDS011;37991;49.662;10.060;2022-12-07T02:29:16;24.75;;;8.27;;
51971;SDS011;37991;49.662;10.060;2022-12-07T02:32:29;24.98;;;7.75;;
51971;SDS011;37991;49.662;10.060;2022-12-07T02:37:08;15.13;;;6.53;;
51971;SDS011;37991;49.662;10.060;2022-12-07T02:39:43;15.85;;;6.50;;
51971;SDS011;37991;49.662;10.060;2022-12-07T02:42:16;11.52;;;5.80;;
51971;SDS011;37991;49.662;10.060;2022-12-07T02:44:46;16.58;;;6.55;;
51971;SDS011;37991;49.662;10.060;2022-12-07T02:47:13;14.88;;;6.63;;
51971;SDS011;37991;49.662;10.060;2022-12-07T02:49:42;15.43;;;6.45;;
51971;SDS011;37991;49.662;10.060;2022-12-07T02:52:08;16.80;;;7.85;;
51971;SDS011;37991;49.662;10.060;2022-12-07T02:54:33;14.80;;;7.00;;
51971;SDS011;37991;49.662;10.060;2022-12-07T03:18:29;14.23;;;6.60;;
51971;SDS011;37991;49.662;10.060;2022-12-07T03:21:04;14.52;;;7.03;;
51971;SDS011;37991;49.662;10.060;2022-12-07T03:23:34;16.63;;;7.88;;
51971;SDS011;37991;49.662;10.060;2022-12-07T03:26:02;18.58;;;7.00;;
51971;SDS011;37991;49.662;10.060;2022-12-07T03:28:34;15.13;;;6.78;;
51971;SDS011;37991;49.662;10.060;2022-12-07T03:31:12;15.30;;;7.05;;
51971;SDS011;37991;49.662;10.060;2022-12-07T03:33:53;17.13;;;7.03;;
51971;SDS011;37991;49.662;10.060;2022-12-07T03:36:30;14.77;;;6.90;;
51971;SDS011;37991;49.662;10.060;2022-12-07T03:39:07;14.93;;;6.40;;
51971;SDS011;37991;49.662;10.060;2022-12-07T03:41:48;14.50;;;6.60;;
51971;SDS011;37991;49.662;10.060;2022-12-07T03:44:14;16.00;;;6.78;;
51971;SDS011;37991;49.662;10.060;2022-12-07T03:52:10;16.77;;;7.35;;
51971;SDS011;37991;49.662;10.060;2022-12-07T03:57:20;12.90;;;6.03;;
51971;SDS011;37991;49.662;10.060;2022-12-07T03:59:47;15.15;;;6.72;;
51971;SDS011;37991;49.662;10.060;2022-12-07T04:02:13;12.85;;;6.20;;
51971;SDS011;37991;49.662;10.060;2022-12-07T04:04:39;15.23;;;5.95;;
51971;SDS011;37991;49.662;10.060;2022-12-07T04:07:05;14.15;;;6.38;;
51971;SDS011;37991;49.662;10.060;2022-12-07T04:09:31;11.32;;;6.35;;
51971;SDS011;37991;49.662;10.060;2022-12-07T04:11:56;15.43;;;6.78;;
51971;SDS011;37991;49.662;10.060;2022-12-07T04:14:21;16.55;;;7.32;;
51971;SDS011;37991;49.662;10.060;2022-12-07T04:16:48;13.00;;;6.72;;
51971;SDS011;37991;49.662;10.060;2022-12-07T04:19:15;11.57;;;6.22;;
51971;SDS011;37991;49.662;10.060;2022-12-07T04:21:42;12.68;;;5.75;;
51971;SDS011;37991;49.662;10.060;2022-12-07T04:24:07;14.05;;;6.25;;
51971;SDS011;37991;49.662;10.060;2022-12-07T04:26:32;11.30;;;6.10;;
51971;SDS011;37991;49.662;10.060;2022-12-07T04:28:58;11.63;;;5.93;;
51971;SDS011;37991;49.662;10.060;2022-12-07T04:31:23;12.23;;;5.75;;
51971;SDS011;37991;49.662;10.060;2022-12-07T04:33:49;10.88;;;5.82;;
51971;SDS011;37991;49.662;10.060;2022-12-07T04:36:14;13.10;;;6.10;;
51971;SDS011;37991;49.662;10.060;2022-12-07T04:38:40;12.57;;;5.60;;
51971;SDS011;37991;49.662;10.060;2022-12-07T04:41:06;13.77;;;5.90;;
51971;SDS011;37991;49.662;10.060;2022-12-07T04:43:32;12.98;;;6.15;;
51971;SDS011;37991;49.662;10.060;2022-12-07T04:45:58;10.02;;;5.47;;
51971;SDS011;37991;49.662;10.060;2022-12-07T04:48:23;14.32;;;6.63;;
51971;SDS011;37991;49.662;10.060;2022-12-07T04:50:49;14.43;;;6.40;;
51971;SDS011;37991;49.662;10.060;2022-12-07T04:53:14;13.23;;;5.88;;
51971;SDS011;37991;49.662;10.060;2022-12-07T04:55:40;12.88;;;6.10;;
51971;SDS011;37991;49.662;10.060;2022-12-07T04:58:05;13.02;;;6.25;;
51971;SDS011;37991;49.662;10.060;2022-12-07T05:00:31;13.60;;;6.55;;
51971;SDS011;37991;49.662;10.060;2022-12-07T05:02:56;15.98;;;6.47;;
51971;SDS011;37991;49.662;10.060;2022-12-07T05:05:21;12.07;;;6.05;;
51971;SDS011;37991;49.662;10.060;2022-12-07T05:07:47;16.30;;;7.35;;
51971;SDS011;37991;49.662;10.060;2022-12-07T05:10:12;15.32;;;6.10;;
51971;SDS011;37991;49.662;10.060;2022-12-07T05:12:37;12.85;;;6.53;;
51971;SDS011;37991;49.662;10.060;2022-12-07T05:15:03;13.90;;;6.53;;
51971;SDS011;37991;49.662;10.060;2022-12-07T05:17:29;12.75;;;5.70;;
51971;SDS011;37991;49.662;10.060;2022-12-07T05:19:55;12.48;;;6.13;;
51971;SDS011;37991;49.662;10.060;2022-12-07T05:22:20;13.82;;;6.30;;
51971;SDS011;37991;49.662;10.060;2022-12-07T05:24:46;15.82;;;7.10;;
51971;SDS011;37991;49.662;10.060;2022-12-07T05:27:11;12.77;;;6.07;;
51971;SDS011;37991;49.662;10.060;2022-12-07T05:29:37;13.60;;;6.40;;
51971;SDS011;37991;49.662;10.060;2022-12-07T05:32:02;14.82;;;6.05;;
51971;SDS011;37991;49.662;10.060;2022-12-07T05:34:27;14.05;;;6.30;;
51971;SDS011;37991;49.662;10.060;2022-12-07T05:36:53;14.60;;;6.50;;
51971;SDS011;37991;49.662;10.060;2022-12-07T05:39:18;11.10;;;5.95;;
51971;SDS011;37991;49.662;10.060;2022-12-07T05:41:44;15.05;;;6.18;;
51971;SDS011;37991;49.662;10.060;2022-12-07T05:44:28;12.95;;;6.18;;
51971;SDS011;37991;49.662;10.060;2022-12-07T05:46:53;15.45;;;7.18;;
51971;SDS011;37991;49.662;10.060;2022-12-07T05:49:19;13.70;;;6.78;;
51971;SDS011;37991;49.662;10.060;2022-12-07T05:51:44;15.63;;;6.72;;
51971;SDS011;37991;49.662;10.060;2022-12-07T05:54:09;16.35;;;6.38;;
51971;SDS011;37991;49.662;10.060;2022-12-07T05:56:35;15.30;;;7.05;;
51971;SDS011;37991;49.662;10.060;2022-12-07T05:59:00;15.02;;;6.60;;
51971;SDS011;37991;49.662;10.060;2022-12-07T06:01:44;14.48;;;6.90;;
51971;SDS011;37991;49.662;10.060;2022-12-07T06:04:10;14.32;;;6.85;;
51971;SDS011;37991;49.662;10.060;2022-12-07T06:06:35;13.82;;;6.80;;
51971;SDS011;37991;49.662;10.060;2022-12-07T06:09:00;16.55;;;6.97;;
51971;SDS011;37991;49.662;10.060;2022-12-07T06:11:26;14.38;;;6.88;;
51971;SDS011;37991;49.662;10.060;2022-12-07T06:14:10;18.95;;;7.43;;
51971;SDS011;37991;49.662;10.060;2022-12-07T06:16:35;15.40;;;7.20;;
51971;SDS011;37991;49.662;10.060;2022-12-07T06:19:00;15.40;;;7.15;;
51971;SDS011;37991;49.662;10.060;2022-12-07T06:21:26;14.90;;;6.78;;
51971;SDS011;37991;49.662;10.060;2022-12-07T06:23:51;12.90;;;6.43;;
51971;SDS011;37991;49.662;10.060;2022-12-07T06:26:17;17.73;;;7.95;;
51971;SDS011;37991;49.662;10.060;2022-12-07T06:28:42;16.60;;;7.47;;
51971;SDS011;37991;49.662;10.060;2022-12-07T06:31:08;17.38;;;7.40;;
51971;SDS011;37991;49.662;10.060;2022-12-07T06:33:33;15.40;;;6.90;;
51971;SDS011;37991;49.662;10.060;2022-12-07T06:35:59;19.60;;;7.95;;
51971;SDS011;37991;49.662;10.060;2022-12-07T06:38:24;16.42;;;7.40;;
51971;SDS011;37991;49.662;10.060;2022-12-07T06:40:49;16.55;;;6.97;;
51971;SDS011;37991;49.662;10.060;2022-12-07T06:43:15;19.77;;;7.53;;
51971;SDS011;37991;49.662;10.060;2022-12-07T06:45:40;26.00;;;11.27;;
51971;SDS011;37991;49.662;10.060;2022-12-07T06:48:06;104.63;;;27.60;;
51971;SDS011;37991;49.662;10.060;2022-12-07T06:50:32;65.97;;;18.73;;
51971;SDS011;37991;49.662;10.060;2022-12-07T06:52:57;33.08;;;11.18;;
51971;SDS011;37991;49.662;10.060;2022-12-07T06:55:22;53.92;;;15.50;;
51971;SDS011;37991;49.662;10.060;2022-12-07T06:57:48;21.15;;;9.40;;
51971;SDS011;37991;49.662;10.060;2022-12-07T07:00:13;16.02;;;7.78;;
51971;SDS011;37991;49.662;10.060;2022-12-07T07:02:39;18.63;;;7.70;;
51971;SDS011;37991;49.662;10.060;2022-12-07T07:05:04;21.08;;;8.52;;
51971;SDS011;37991;49.662;10.060;2022-12-07T07:07:30;17.65;;;7.57;;
51971;SDS011;37991;49.662;10.060;2022-12-07T07:09:55;17.42;;;7.35;;
51971;SDS011;37991;49.662;10.060;2022-12-07T07:12:21;16.90;;;7.00;;
51971;SDS011;37991;49.662;10.060;2022-12-07T07:14:46;16.92;;;6.50;;
51971;SDS011;37991;49.662;10.060;2022-12-07T07:17:12;16.63;;;7.30;;
51971;SDS011;37991;49.662;10.060;2022-12-07T07:19:37;15.32;;;7.15;;
51971;SDS011;37991;49.662;10.060;2022-12-07T07:22:03;16.58;;;6.57;;
51971;SDS011;37991;49.662;10.060;2022-12-07T07:24:29;14.25;;;6.95;;
51971;SDS011;37991;49.662;10.060;2022-12-07T07:26:54;15.18;;;6.38;;
51971;SDS011;37991;49.662;10.060;2022-12-07T07:29:19;15.10;;;6.63;;
51971;SDS011;37991;49.662;10.060;2022-12-07T07:31:45;14.93;;;6.72;;
51971;SDS011;37991;49.662;10.060;2022-12-07T07:34:11;15.65;;;7.22;;
51971;SDS011;37991;49.662;10.060;2022-12-07T07:36:36;15.15;;;6.72;;
51971;SDS011;37991;49.662;10.060;2022-12-07T07:39:02;13.20;;;6.68;;
51971;SDS011;37991;49.662;10.060;2022-12-07T07:41:27;15.75;;;6.32;;
51971;SDS011;37991;49.662;10.060;2022-12-07T07:43:52;13.18;;;6.65;;
51971;SDS011;37991;49.662;10.060;2022-12-07T07:46:18;16.65;;;7.05;;
51971;SDS011;37991;49.662;10.060;2022-12-07T07:48:43;15.60;;;7.03;;
51971;SDS011;37991;49.662;10.060;2022-12-07T07:51:08;13.40;;;5.97;;
51971;SDS011;37991;49.662;10.060;2022-12-07T07:53:35;13.80;;;5.95;;
51971;SDS011;37991;49.662;10.060;2022-12-07T07:56:00;11.75;;;5.63;;
51971;SDS011;37991;49.662;10.060;2022-12-07T07:58:25;13.25;;;6.40;;
51971;SDS011;37991;49.662;10.060;2022-12-07T08:00:51;16.13;;;6.65;;
51971;SDS011;37991;49.662;10.060;2022-12-07T08:03:16;17.98;;;8.15;;
51971;SDS011;37991;49.662;10.060;2022-12-07T08:05:42;14.68;;;6.53;;
51971;SDS011;37991;49.662;10.060;2022-12-07T08:08:07;15.20;;;6.32;;
51971;SDS011;37991;49.662;10.060;2022-12-07T08:10:32;15.68;;;6.72;;
51971;SDS011;37991;49.662;10.060;2022-12-07T08:12:59;12.93;;;6.80;;
51971;SDS011;37991;49.662;10.060;2022-12-07T08:15:39;18.10;;;6.88;;
51971;SDS011;37991;49.662;10.060;2022-12-07T08:18:06;13.30;;;6.82;;
51971;SDS011;37991;49.662;10.060;2022-12-07T08:20:32;16.92;;;8.77;;
51971;SDS011;37991;49.662;10.060;2022-12-07T08:22:59;14.70;;;7.63;;
51971;SDS011;37991;49.662;10.060;2022-12-07T08:25:25;12.80;;;6.43;;
51971;SDS011;37991;49.662;10.060;2022-12-07T08:27:51;14.43;;;6.43;;
51971;SDS011;37991;49.662;10.060;2022-12-07T08:30:17;12.70;;;5.65;;
51971;SDS011;37991;49.662;10.060;2022-12-07T08:32:44;12.05;;;6.03;;
51971;SDS011;37991;49.662;10.060;2022-12-07T08:35:10;12.32;;;6.18;;
51971;SDS011;37991;49.662;10.060;2022-12-07T08:37:36;11.73;;;5.78;;
51971;SDS011;37991;49.662;10.060;2022-12-07T08:40:02;12.13;;;5.85;;
51971;SDS011;37991;49.662;10.060;2022-12-07T08:42:28;12.70;;;6.20;;
51971;SDS011;37991;49.662;10.060;2022-12-07T08:44:55;10.02;;;5.65;;
51971;SDS011;37991;49.662;10.060;2022-12-07T08:47:21;10.13;;;5.55;;
51971;SDS011;37991;49.662;10.060;2022-12-07T08:49:47;10.30;;;5.45;;
51971;SDS011;37991;49.662;10.060;2022-12-07T08:52:14;10.85;;;5.70;;
51971;SDS011;37991;49.662;10.060;2022-12-07T08:54:40;10.52;;;5.15;;
51971;SDS011;37991;49.662;10.060;2022-12-07T08:57:06;11.05;;;5.57;;
51971;SDS011;37991;49.662;10.060;2022-12-07T08:59:33;10.32;;;4.70;;
51971;SDS011;37991;49.662;10.060;2022-12-07T09:02:01;9.50;;;4.93;;
51971;SDS011;37991;49.662;10.060;2022-12-07T09:04:26;11.20;;;5.25;;
51971;SDS011;37991;49.662;10.060;2022-12-07T09:06:51;9.57;;;5.20;;
51971;SDS011;37991;49.662;10.060;2022-12-07T09:09:18;8.93;;;5.05;;
51971;SDS011;37991;49.662;10.060;2022-12-07T09:11:43;9.32;;;4.80;;
51971;SDS011;37991;49.662;10.060;2022-12-07T09:14:10;8.77;;;4.93;;
51971;SDS011;37991;49.662;10.060;2022-12-07T09:16:37;9.75;;;4.80;;
51971;SDS011;37991;49.662;10.060;2022-12-07T09:19:03;9.43;;;4.70;;
51971;SDS011;37991;49.662;10.060;2022-12-07T09:21:28;9.50;;;5.07;;
51971;SDS011;37991;49.662;10.060;2022-12-07T09:23:53;11.52;;;4.55;;
51971;SDS011;37991;49.662;10.060;2022-12-07T09:26:19;11.98;;;5.53;;
51971;SDS011;37991;49.662;10.060;2022-12-07T09:28:44;21.85;;;7.82;;
51971;SDS011;37991;49.662;10.060;2022-12-07T09:31:09;25.38;;;8.80;;
51971;SDS011;37991;49.662;10.060;2022-12-07T09:33:35;22.77;;;8.77;;
51971;SDS011;37991;49.662;10.060;2022-12-07T09:36:00;12.50;;;5.28;;
51971;SDS011;37991;49.662;10.060;2022-12-07T09:38:26;20.20;;;7.95;;
51971;SDS011;37991;49.662;10.060;2022-12-07T09:40:51;13.25;;;6.22;;
51971;SDS011;37991;49.662;10.060;2022-12-07T09:43:21;11.20;;;5.10;;
51971;SDS011;37991;49.662;10.060;2022-12-07T09:45:50;11.05;;;5.28;;
51971;SDS011;37991;49.662;10.060;2022-12-07T09:50:56;9.60;;;5.45;;
51971;SDS011;37991;49.662;10.060;2022-12-07T09:53:30;9.93;;;5.22;;
51971;SDS011;37991;49.662;10.060;2022-12-07T09:55:59;10.45;;;5.40;;
51971;SDS011;37991;49.662;10.060;2022-12-07T09:58:26;8.82;;;4.90;;
51971;SDS011;37991;49.662;10.060;2022-12-07T10:00:56;9.73;;;4.60;;
51971;SDS011;37991;49.662;10.060;2022-12-07T10:03:23;11.30;;;5.32;;
51971;SDS011;37991;49.662;10.060;2022-12-07T10:05:50;11.18;;;5.47;;
51971;SDS011;37991;49.662;10.060;2022-12-07T10:08:16;10.15;;;4.57;;
51971;SDS011;37991;49.662;10.060;2022-12-07T10:10:42;12.43;;;5.45;;
51971;SDS011;37991;49.662;10.060;2022-12-07T10:13:10;12.20;;;5.18;;
51971;SDS011;37991;49.662;10.060;2022-12-07T10:20:43;10.50;;;5.15;;
51971;SDS011;37991;49.662;10.060;2022-12-07T10:23:15;9.32;;;4.75;;
51971;SDS011;37991;49.662;10.060;2022-12-07T10:25:44;11.30;;;4.80;;
51971;SDS011;37991;49.662;10.060;2022-12-07T10:28:12;10.30;;;4.72;;
51971;SDS011;37991;49.662;10.060;2022-12-07T10:30:58;13.45;;;5.13;;
51971;SDS011;37991;49.662;10.060;2022-12-07T10:36:16;9.52;;;5.38;;
51971;SDS011;37991;49.662;10.060;2022-12-07T10:38:47;8.48;;;4.40;;
51971;SDS011;37991;49.662;10.060;2022-12-07T10:41:13;7.85;;;4.20;;
51971;SDS011;37991;49.662;10.060;2022-12-07T10:43:46;8.52;;;4.68;;
51971;SDS011;37991;49.662;10.060;2022-12-07T10:52:03;10.30;;;4.97;;
51971;SDS011;37991;49.662;10.060;2022-12-07T11:11:19;8.77;;;4.45;;
51971;SDS011;37991;49.662;10.060;2022-12-07T11:13:59;7.78;;;4.57;;
51971;SDS011;37991;49.662;10.060;2022-12-07T11:23:02;11.13;;;4.43;;
51971;SDS011;37991;49.662;10.060;2022-12-07T11:27:48;9.07;;;4.50;;
51971;SDS011;37991;49.662;10.060;2022-12-07T11:33:22;8.38;;;4.43;;
51971;SDS011;37991;49.662;10.060;2022-12-07T11:36:06;10.20;;;5.22;;
51971;SDS011;37991;49.662;10.060;2022-12-07T11:38:37;8.23;;;4.90;;
51971;SDS011;37991;49.662;10.060;2022-12-07T11:41:04;8.40;;;4.47;;
51971;SDS011;37991;49.662;10.060;2022-12-07T11:43:55;8.23;;;4.45;;
51971;SDS011;37991;49.662;10.060;2022-12-07T11:46:25;11.07;;;4.80;;
51971;SDS011;37991;49.662;10.060;2022-12-07T11:51:20;9.60;;;5.10;;
51971;SDS011;37991;49.662;10.060;2022-12-07T11:56:27;9.00;;;4.63;;
51971;SDS011;37991;49.662;10.060;2022-12-07T11:59:06;10.00;;;5.25;;
51971;SDS011;37991;49.662;10.060;2022-12-07T12:02:26;12.88;;;5.38;;
51971;SDS011;37991;49.662;10.060;2022-12-07T12:05:17;12.80;;;5.03;;
51971;SDS011;37991;49.662;10.060;2022-12-07T12:07:46;10.25;;;5.15;;
51971;SDS011;37991;49.662;10.060;2022-12-07T12:10:25;9.13;;;5.10;;
51971;SDS011;37991;49.662;10.060;2022-12-07T12:13:12;8.13;;;4.57;;
51971;SDS011;37991;49.662;10.060;2022-12-07T12:19:01;10.05;;;4.95;;
51971;SDS011;37991;49.662;10.060;2022-12-07T12:21:41;10.63;;;5.18;;
51971;SDS011;37991;49.662;10.060;2022-12-07T12:24:18;11.00;;;5.03;;
51971;SDS011;37991;49.662;10.060;2022-12-07T12:26:49;11.95;;;5.10;;
51971;SDS011;37991;49.662;10.060;2022-12-07T12:29:27;9.18;;;5.03;;
51971;SDS011;37991;49.662;10.060;2022-12-07T12:32:04;16.13;;;5.28;;
51971;SDS011;37991;49.662;10.060;2022-12-07T12:34:40;8.70;;;4.75;;
51971;SDS011;37991;49.662;10.060;2022-12-07T12:42:45;9.30;;;5.22;;
51971;SDS011;37991;49.662;10.060;2022-12-07T12:47:59;10.07;;;5.40;;
51971;SDS011;37991;49.662;10.060;2022-12-07T12:50:27;9.88;;;4.82;;
51971;SDS011;37991;49.662;10.060;2022-12-07T12:55:28;10.45;;;5.15;;
51971;SDS011;37991;49.662;10.060;2022-12-07T13:00:47;10.75;;;5.47;;
51971;SDS011;37991;49.662;10.060;2022-12-07T13:03:34;8.65;;;4.72;;
51971;SDS011;37991;49.662;10.060;2022-12-07T13:06:17;10.30;;;5.68;;
51971;SDS011;37991;49.662;10.060;2022-12-07T13:08:44;11.27;;;5.10;;
51971;SDS011;37991;49.662;10.060;2022-12-07T13:11:25;13.68;;;5.57;;
51971;SDS011;37991;49.662;10.060;2022-12-07T13:13:56;12.40;;;5.38;;
51971;SDS011;37991;49.662;10.060;2022-12-07T13:16:56;13.90;;;4.95;;
51971;SDS011;37991;49.662;10.060;2022-12-07T13:25:17;8.93;;;4.68;;
51971;SDS011;37991;49.662;10.060;2022-12-07T13:28:16;11.13;;;5.35;;
51971;SDS011;37991;49.662;10.060;2022-12-07T13:30:49;9.15;;;4.88;;
51971;SDS011;37991;49.662;10.060;2022-12-07T13:33:27;11.90;;;5.05;;
51971;SDS011;37991;49.662;10.060;2022-12-07T13:35:53;7.78;;;4.80;;
51971;SDS011;37991;49.662;10.060;2022-12-07T13:41:00;10.50;;;5.43;;
51971;SDS011;37991;49.662;10.060;2022-12-07T13:43:25;12.13;;;5.53;;
51971;SDS011;37991;49.662;10.060;2022-12-07T13:45:55;11.80;;;5.80;;
51971;SDS011;37991;49.662;10.060;2022-12-07T13:51:12;11.00;;;5.68;;
51971;SDS011;37991;49.662;10.060;2022-12-07T13:53:47;10.52;;;5.97;;
51971;SDS011;37991;49.662;10.060;2022-12-07T13:56:15;9.20;;;4.32;;
51971;SDS011;37991;49.662;10.060;2022-12-07T13:58:41;8.43;;;4.15;;
51971;SDS011;37991;49.662;10.060;2022-12-07T14:01:07;8.65;;;4.40;;
51971;SDS011;37991;49.662;10.060;2022-12-07T14:03:33;6.97;;;3.67;;
51971;SDS011;37991;49.662;10.060;2022-12-07T14:08:41;6.30;;;3.50;;
51971;SDS011;37991;49.662;10.060;2022-12-07T14:11:09;5.05;;;3.05;;
51971;SDS011;37991;49.662;10.060;2022-12-07T14:13:50;4.93;;;3.13;;
51971;SDS011;37991;49.662;10.060;2022-12-07T14:16:29;6.15;;;3.45;;
51971;SDS011;37991;49.662;10.060;2022-12-07T14:18:57;5.38;;;2.92;;
51971;SDS011;37991;49.662;10.060;2022-12-07T14:21:25;6.75;;;3.72;;
51971;SDS011;37991;49.662;10.060;2022-12-07T14:24:06;8.13;;;3.72;;
51971;SDS011;37991;49.662;10.060;2022-12-07T14:26:38;7.70;;;3.92;;
51971;SDS011;37991;49.662;10.060;2022-12-07T14:29:21;4.13;;;2.88;;
51971;SDS011;37991;49.662;10.060;2022-12-07T14:31:50;6.75;;;3.40;;
51971;SDS011;37991;49.662;10.060;2022-12-07T14:34:19;8.77;;;4.22;;
51971;SDS011;37991;49.662;10.060;2022-12-07T14:36:45;9.98;;;4.30;;
51971;SDS011;37991;49.662;10.060;2022-12-07T14:39:10;6.80;;;3.95;;
51971;SDS011;37991;49.662;10.060;2022-12-07T14:41:36;9.50;;;4.95;;
51971;SDS011;37991;49.662;10.060;2022-12-07T14:44:16;8.32;;;4.75;;
51971;SDS011;37991;49.662;10.060;2022-12-07T14:46:44;8.85;;;5.25;;
51971;SDS011;37991;49.662;10.060;2022-12-07T14:49:10;11.93;;;6.22;;
51971;SDS011;37991;49.662;10.060;2022-12-07T14:51:36;6.75;;;4.05;;
51971;SDS011;37991;49.662;10.060;2022-12-07T14:54:05;7.82;;;4.35;;
51971;SDS011;37991;49.662;10.060;2022-12-07T14:56:36;9.48;;;4.97;;
51971;SDS011;37991;49.662;10.060;2022-12-07T14:59:02;11.25;;;4.95;;
51971;SDS011;37991;49.662;10.060;2022-12-07T15:01:27;7.55;;;4.22;;
51971;SDS011;37991;49.662;10.060;2022-12-07T15:03:53;9.35;;;5.18;;
51971;SDS011;37991;49.662;10.060;2022-12-07T15:06:18;11.32;;;5.30;;
51971;SDS011;37991;49.662;10.060;2022-12-07T15:08:44;11.25;;;4.85;;
51971;SDS011;37991;49.662;10.060;2022-12-07T15:11:16;10.90;;;4.95;;
51971;SDS011;37991;49.662;10.060;2022-12-07T15:13:43;8.67;;;5.13;;
51971;SDS011;37991;49.662;10.060;2022-12-07T15:16:27;10.05;;;4.70;;
51971;SDS011;37991;49.662;10.060;2022-12-07T15:18:53;8.40;;;4.30;;
51971;SDS011;37991;49.662;10.060;2022-12-07T15:21:18;7.82;;;4.13;;
51971;SDS011;37991;49.662;10.060;2022-12-07T15:23:44;8.25;;;3.95;;
51971;SDS011;37991;49.662;10.060;2022-12-07T15:26:11;7.30;;;4.03;;
51971;SDS011;37991;49.662;10.060;2022-12-07T15:28:36;6.68;;;4.00;;
51971;SDS011;37991;49.662;10.060;2022-12-07T15:31:02;9.38;;;4.47;;
51971;SDS011;37991;49.662;10.060;2022-12-07T15:33:27;7.90;;;4.35;;
51971;SDS011;37991;49.662;10.060;2022-12-07T15:35:52;6.35;;;3.80;;
51971;SDS011;37991;49.662;10.060;2022-12-07T15:38:18;5.82;;;3.90;;
51971;SDS011;37991;49.662;10.060;2022-12-07T15:40:46;7.10;;;3.53;;
51971;SDS011;37991;49.662;10.060;2022-12-07T15:43:11;7.85;;;3.33;;
51971;SDS011;37991;49.662;10.060;2022-12-07T15:45:55;6.05;;;3.42;;
51971;SDS011;37991;49.662;10.060;2022-12-07T15:48:20;6.90;;;3.50;;
51971;SDS011;37991;49.662;10.060;2022-12-07T15:50:46;10.68;;;3.88;;
51971;SDS011;37991;49.662;10.060;2022-12-07T15:53:11;7.30;;;3.45;;
51971;SDS011;37991;49.662;10.060;2022-12-07T15:55:39;7.13;;;3.65;;
51971;SDS011;37991;49.662;10.060;2022-12-07T15:58:05;5.43;;;3.10;;
51971;SDS011;37991;49.662;10.060;2022-12-07T16:00:31;6.10;;;3.30;;
51971;SDS011;37991;49.662;10.060;2022-12-07T16:02:56;6.72;;;3.72;;
51971;SDS011;37991;49.662;10.060;2022-12-07T16:05:22;11.07;;;5.57;;
51971;SDS011;37991;49.662;10.060;2022-12-07T16:07:47;6.90;;;3.92;;
51971;SDS011;37991;49.662;10.060;2022-12-07T16:10:13;8.05;;;3.90;;
51971;SDS011;37991;49.662;10.060;2022-12-07T16:12:38;9.75;;;4.68;;
51971;SDS011;37991;49.662;10.060;2022-12-07T16:15:04;12.43;;;4.43;;
51971;SDS011;37991;49.662;10.060;2022-12-07T16:17:30;9.88;;;4.60;;
51971;SDS011;37991;49.662;10.060;2022-12-07T16:19:55;12.45;;;4.70;;
51971;SDS011;37991;49.662;10.060;2022-12-07T16:22:21;10.05;;;4.38;;
51971;SDS011;37991;49.662;10.060;2022-12-07T16:24:46;12.32;;;5.40;;
51971;SDS011;37991;49.662;10.060;2022-12-07T16:27:11;11.30;;;5.60;;
51971;SDS011;37991;49.662;10.060;2022-12-07T16:29:37;17.85;;;7.35;;
51971;SDS011;37991;49.662;10.060;2022-12-07T16:32:02;20.15;;;9.30;;
51971;SDS011;37991;49.662;10.060;2022-12-07T16:34:28;20.40;;;7.70;;
51971;SDS011;37991;49.662;10.060;2022-12-07T16:36:53;15.35;;;8.38;;
51971;SDS011;37991;49.662;10.060;2022-12-07T16:39:19;16.98;;;8.75;;